createdAt,value
2022-08-17T00:00:52.002Z,99.99
2022-08-17T00:01:53.112Z,99.99
2022-08-17T00:02:51.754Z,99.99
2022-08-17T00:03:51.441Z,99.99
2022-08-17T00:04:51.446Z,99.99
2022-08-17T00:05:51.361Z,99.99
2022-08-17T00:06:51.256Z,99.99
2022-08-17T00:07:51.487Z,99.99
2022-08-17T00:08:51.164Z,99.99
2022-08-17T00:09:51.050Z,99.99
2022-08-17T00:10:51.021Z,99.99
2022-08-17T00:12:40.832Z,99.99
2022-08-17T00:12:51.002Z,99.99
2022-08-17T00:13:50.891Z,99.99
2022-08-17T00:14:50.766Z,99.99
2022-08-17T00:15:50.755Z,99.99
2022-08-17T00:16:55.822Z,99.99
2022-08-17T00:17:50.645Z,99.99
2022-08-17T00:19:01.829Z,99.99
2022-08-17T00:19:50.520Z,99.99
2022-08-17T00:20:50.524Z,99.99
2022-08-17T00:22:30.768Z,99.99
2022-08-17T00:22:50.619Z,99.99
2022-08-17T00:23:50.373Z,99.99
2022-08-17T00:24:50.182Z,99.99
2022-08-17T00:25:50.250Z,99.99
2022-08-17T00:26:50.149Z,99.99
2022-08-17T00:27:50.060Z,99.99
2022-08-17T00:28:50.066Z,99.99
2022-08-17T00:29:49.976Z,99.99
2022-08-17T00:30:53.217Z,99.99
2022-08-17T00:31:49.881Z,99.99
2022-08-17T00:33:22.742Z,99.99
2022-08-17T00:33:49.789Z,99.99
2022-08-17T00:34:49.697Z,99.99
2022-08-17T00:35:49.627Z,99.99
2022-08-17T00:36:49.471Z,99.99
2022-08-17T00:37:49.507Z,99.99
2022-08-17T00:38:49.414Z,99.99
2022-08-17T00:39:49.416Z,99.99
2022-08-17T00:40:49.426Z,99.99
2022-08-17T00:41:49.232Z,99.99
2022-08-17T00:42:49.379Z,99.99
2022-08-17T00:43:49.140Z,99.99
2022-08-17T00:44:49.045Z,99.99
2022-08-17T00:45:49.039Z,99.99
2022-08-17T00:46:48.957Z,99.99
2022-08-17T00:47:48.881Z,99.99
2022-08-17T00:48:48.861Z,99.99
2022-08-17T00:49:48.768Z,99.99
2022-08-17T00:50:48.703Z,99.99
2022-08-17T00:51:48.672Z,99.99
2022-08-17T00:52:48.759Z,99.99
2022-08-17T00:53:48.515Z,99.99
2022-08-17T00:54:48.493Z,99.99
2022-08-17T00:55:48.398Z,99.99
2022-08-17T00:56:48.329Z,99.99
2022-08-17T00:57:51.186Z,99.99
2022-08-17T00:58:48.205Z,99.99
2022-08-17T00:59:55.906Z,99.99
2022-08-17T01:00:48.188Z,99.99
2022-08-17T01:01:48.084Z,99.99
2022-08-17T01:02:47.961Z,99.99
2022-08-17T01:03:47.928Z,99.99
2022-08-17T01:04:47.864Z,99.99
2022-08-17T01:05:47.844Z,99.99
2022-08-17T01:06:47.700Z,99.99
2022-08-17T01:07:47.642Z,99.99
2022-08-17T01:08:47.586Z,99.99
2022-08-17T01:09:47.532Z,99.99
2022-08-17T01:10:57.186Z,99.99
2022-08-17T01:11:47.407Z,99.99
2022-08-17T01:12:47.371Z,99.99
2022-08-17T01:13:47.318Z,99.99
2022-08-17T01:14:47.242Z,99.99
2022-08-17T01:15:47.188Z,99.99
2022-08-17T01:16:47.135Z,99.99
2022-08-17T01:17:47.058Z,99.99
2022-08-17T01:18:47.016Z,99.99
2022-08-17T01:19:46.980Z,99.99
2022-08-17T01:20:48.037Z,99.99
2022-08-17T01:21:46.819Z,99.99
2022-08-17T01:22:46.766Z,99.99
2022-08-17T01:23:46.704Z,99.99
2022-08-17T01:24:46.669Z,99.99
2022-08-17T01:25:46.623Z,99.99
2022-08-17T01:26:46.545Z,99.99
2022-08-17T01:27:46.480Z,99.99
2022-08-17T01:28:54.974Z,99.99
2022-08-17T01:29:46.370Z,99.99
2022-08-17T01:30:56.716Z,99.99
2022-08-17T01:31:46.238Z,99.99
2022-08-17T01:32:46.233Z,99.99
2022-08-17T01:33:46.115Z,99.99
2022-08-17T01:34:50.136Z,99.99
2022-08-17T01:35:46.088Z,99.99
2022-08-17T01:36:45.951Z,99.99
2022-08-17T01:37:45.881Z,99.99
2022-08-17T01:38:45.839Z,99.99
2022-08-17T01:39:45.838Z,99.99
2022-08-17T01:40:45.704Z,99.99
2022-08-17T01:41:45.674Z,99.99
2022-08-17T01:42:46.380Z,99.99
2022-08-17T01:43:45.547Z,99.99
2022-08-17T01:44:45.471Z,99.99
2022-08-17T01:45:45.411Z,99.99
2022-08-17T01:46:45.352Z,99.99
2022-08-17T01:47:45.304Z,99.99
2022-08-17T01:48:45.349Z,99.99
2022-08-17T01:49:45.532Z,99.99
2022-08-17T01:50:45.131Z,99.99
2022-08-17T01:51:45.057Z,99.99
2022-08-17T01:52:44.996Z,99.99
2022-08-17T01:53:44.967Z,99.99
2022-08-17T01:54:45.053Z,99.99
2022-08-17T01:55:44.879Z,99.99
2022-08-17T01:56:47.084Z,99.99
2022-08-17T01:57:44.707Z,99.99
2022-08-17T01:58:44.648Z,99.99
2022-08-17T01:59:44.588Z,99.99
2022-08-17T02:00:46.901Z,99.99
2022-08-17T02:01:44.515Z,99.99
2022-08-17T02:02:44.406Z,99.99
2022-08-17T02:03:54.568Z,99.99
2022-08-17T02:04:44.292Z,99.99
2022-08-17T02:05:44.231Z,99.99
2022-08-17T02:06:52.945Z,99.99
2022-08-17T02:07:58.647Z,99.99
2022-08-17T02:09:03.006Z,99.99
2022-08-17T02:09:44.038Z,99.99
2022-08-17T02:10:46.717Z,99.99
2022-08-17T02:11:43.898Z,99.99
2022-08-17T02:12:43.824Z,99.99
2022-08-17T02:13:43.762Z,99.99
2022-08-17T02:14:43.712Z,99.99
2022-08-17T02:15:43.642Z,99.99
2022-08-17T02:16:43.588Z,99.99
2022-08-17T02:17:43.527Z,99.99
2022-08-17T02:18:43.466Z,99.99
2022-08-17T02:19:43.406Z,99.99
2022-08-17T02:20:43.346Z,99.99
2022-08-17T02:21:43.297Z,99.99
2022-08-17T02:22:43.227Z,99.99
2022-08-17T02:23:43.170Z,99.99
2022-08-17T02:24:58.741Z,99.99
2022-08-17T02:25:43.082Z,99.99
2022-08-17T02:26:42.996Z,99.99
2022-08-17T02:27:42.936Z,99.99
2022-08-17T02:28:42.880Z,99.99
2022-08-17T02:29:42.819Z,99.99
2022-08-17T02:31:02.203Z,99.99
2022-08-17T02:31:42.713Z,99.99
2022-08-17T02:32:42.729Z,99.99
2022-08-17T02:33:43.762Z,99.99
2022-08-17T02:34:42.521Z,99.99
2022-08-17T02:35:42.467Z,99.99
2022-08-17T02:36:42.405Z,99.99
2022-08-17T02:37:42.346Z,99.99
2022-08-17T02:38:42.302Z,99.99
2022-08-17T02:39:42.273Z,99.99
2022-08-17T02:40:42.175Z,99.99
2022-08-17T02:41:42.115Z,99.99
2022-08-17T02:42:42.102Z,99.99
2022-08-17T02:43:42.002Z,99.99
2022-08-17T02:44:41.936Z,99.99
2022-08-17T02:45:41.873Z,99.99
2022-08-17T02:46:41.814Z,99.99
2022-08-17T02:47:41.757Z,99.99
2022-08-17T02:48:41.696Z,99.99
2022-08-17T02:49:46.303Z,99.99
2022-08-17T02:50:41.583Z,99.99
2022-08-17T02:51:41.521Z,99.99
2022-08-17T02:52:43.697Z,99.99
2022-08-17T02:53:41.402Z,99.99
2022-08-17T02:54:42.468Z,99.99
2022-08-17T02:55:41.287Z,99.99
2022-08-17T02:56:41.238Z,99.99
2022-08-17T02:57:41.167Z,99.99
2022-08-17T02:58:41.111Z,99.99
2022-08-17T02:59:45.442Z,99.99
2022-08-17T03:00:40.988Z,99.99
2022-08-17T03:01:41.006Z,99.99
2022-08-17T03:02:40.871Z,99.99
2022-08-17T03:03:40.814Z,99.99
2022-08-17T03:04:40.754Z,99.99
2022-08-17T03:05:40.695Z,99.99
2022-08-17T03:06:40.634Z,99.99
2022-08-17T03:07:40.580Z,99.99
2022-08-17T03:08:40.518Z,99.99
2022-08-17T03:09:40.464Z,99.99
2022-08-17T03:10:40.418Z,99.99
2022-08-17T03:11:40.344Z,99.99
2022-08-17T03:12:40.284Z,99.99
2022-08-17T03:13:40.227Z,99.99
2022-08-17T03:14:41.708Z,99.99
2022-08-17T03:15:43.785Z,99.99
2022-08-17T03:16:40.049Z,99.99
2022-08-17T03:17:39.985Z,99.99
2022-08-17T03:18:39.924Z,99.99
2022-08-17T03:19:42.960Z,99.99
2022-08-17T03:20:39.814Z,99.99
2022-08-17T03:21:39.751Z,99.99
2022-08-17T03:22:39.689Z,99.99
2022-08-17T03:23:39.645Z,99.99
2022-08-17T03:24:39.592Z,99.99
2022-08-17T03:25:39.525Z,99.99
2022-08-17T03:26:39.456Z,99.99
2022-08-17T03:27:41.967Z,99.99
2022-08-17T03:28:39.341Z,99.99
2022-08-17T03:29:39.280Z,99.99
2022-08-17T03:30:39.223Z,99.99
2022-08-17T03:31:39.160Z,99.99
2022-08-17T03:32:39.103Z,99.99
2022-08-17T03:33:39.040Z,99.99
2022-08-17T03:34:38.979Z,99.99
2022-08-17T03:35:38.923Z,99.99
2022-08-17T03:36:38.862Z,99.99
2022-08-17T03:37:38.803Z,99.99
2022-08-17T03:38:39.411Z,99.99
2022-08-17T03:39:38.748Z,99.99
2022-08-17T03:40:57.059Z,99.99
2022-08-17T03:41:38.589Z,99.99
2022-08-17T03:42:38.516Z,99.99
2022-08-17T03:43:38.447Z,99.99
2022-08-17T03:44:38.408Z,99.99
2022-08-17T03:45:38.338Z,99.99
2022-08-17T03:46:38.270Z,99.99
2022-08-17T03:47:38.215Z,99.99
2022-08-17T03:48:38.154Z,99.99
2022-08-17T03:49:38.094Z,99.99
2022-08-17T03:50:38.044Z,99.99
2022-08-17T03:51:37.974Z,99.99
2022-08-17T03:52:37.945Z,99.99
2022-08-17T03:53:37.858Z,99.99
2022-08-17T03:54:37.796Z,99.99
2022-08-17T03:55:37.738Z,99.99
2022-08-17T03:56:37.690Z,99.99
2022-08-17T03:57:37.640Z,99.99
2022-08-17T03:58:37.577Z,99.99
2022-08-17T03:59:37.509Z,99.99
2022-08-17T04:00:39.834Z,99.99
2022-08-17T04:01:37.466Z,99.99
2022-08-17T04:02:37.327Z,99.99
2022-08-17T04:03:37.265Z,99.99
2022-08-17T04:04:37.215Z,99.99
2022-08-17T04:05:37.155Z,99.99
2022-08-17T04:06:37.088Z,99.99
2022-08-17T04:07:37.047Z,99.99
2022-08-17T04:08:36.969Z,99.99
2022-08-17T04:09:36.907Z,99.99
2022-08-17T04:10:44.757Z,99.99
2022-08-17T04:11:36.796Z,99.99
2022-08-17T04:12:36.754Z,99.99
2022-08-17T04:13:36.675Z,99.99
2022-08-17T04:14:37.840Z,99.99
2022-08-17T04:15:36.562Z,99.99
2022-08-17T04:16:36.499Z,99.99
2022-08-17T04:17:36.438Z,99.99
2022-08-17T04:18:36.386Z,99.99
2022-08-17T04:19:36.319Z,99.99
2022-08-17T04:20:36.262Z,99.99
2022-08-17T04:21:36.201Z,99.99
2022-08-17T04:22:36.147Z,99.99
2022-08-17T04:23:36.081Z,99.99
2022-08-17T04:24:36.030Z,99.99
2022-08-17T04:25:35.969Z,99.99
2022-08-17T04:26:53.214Z,99.99
2022-08-17T04:27:35.846Z,99.99
2022-08-17T04:28:35.855Z,99.99
2022-08-17T04:29:55.183Z,99.99
2022-08-17T04:30:35.669Z,99.99
2022-08-17T04:31:35.611Z,99.99
2022-08-17T04:33:00.439Z,99.99
2022-08-17T04:33:35.495Z,99.99
2022-08-17T04:34:35.431Z,99.99
2022-08-17T04:35:35.374Z,99.99
2022-08-17T04:36:35.319Z,99.99
2022-08-17T04:37:35.256Z,99.99
2022-08-17T04:38:35.198Z,99.99
2022-08-17T04:39:35.208Z,99.99
2022-08-17T04:40:35.081Z,99.99
2022-08-17T04:41:35.021Z,99.99
2022-08-17T04:42:34.961Z,99.99
2022-08-17T04:43:34.900Z,99.99
2022-08-17T04:44:37.402Z,99.99
2022-08-17T04:45:34.782Z,99.99
2022-08-17T04:46:34.735Z,99.99
2022-08-17T04:47:34.668Z,99.99
2022-08-17T04:48:36.902Z,99.99
2022-08-17T04:49:34.552Z,99.99
2022-08-17T04:50:34.485Z,99.99
2022-08-17T04:51:34.424Z,99.99
2022-08-17T04:52:43.631Z,99.99
2022-08-17T04:53:34.306Z,99.99
2022-08-17T04:54:34.254Z,99.99
2022-08-17T04:55:34.192Z,99.99
2022-08-17T04:56:34.154Z,99.99
2022-08-17T04:57:39.502Z,99.99
2022-08-17T04:58:34.013Z,99.99
2022-08-17T04:59:33.985Z,99.99
2022-08-17T05:00:33.895Z,99.99
2022-08-17T05:01:33.894Z,99.99
2022-08-17T05:02:33.788Z,99.99
2022-08-17T05:03:33.733Z,99.99
2022-08-17T05:04:35.403Z,99.99
2022-08-17T05:05:33.609Z,99.99
2022-08-17T05:06:33.549Z,99.99
2022-08-17T05:07:33.482Z,99.99
2022-08-17T05:08:33.425Z,99.99
2022-08-17T05:09:33.363Z,99.99
2022-08-17T05:10:33.306Z,99.99
2022-08-17T05:11:33.246Z,99.99
2022-08-17T05:12:33.188Z,99.99
2022-08-17T05:13:33.131Z,99.99
2022-08-17T05:14:33.963Z,99.99
2022-08-17T05:15:35.911Z,99.99
2022-08-17T05:16:33.008Z,99.99
2022-08-17T05:17:32.943Z,99.99
2022-08-17T05:18:32.840Z,99.99
2022-08-17T05:19:32.777Z,99.99
2022-08-17T05:20:32.727Z,99.99
2022-08-17T05:21:32.713Z,99.99
2022-08-17T05:22:32.599Z,99.99
2022-08-17T05:23:38.502Z,99.99
2022-08-17T05:24:39.004Z,99.99
2022-08-17T05:25:33.293Z,99.99
2022-08-17T05:26:32.366Z,99.99
2022-08-17T05:27:35.288Z,99.99
2022-08-17T05:28:32.276Z,99.99
2022-08-17T05:29:35.093Z,99.99
2022-08-17T05:30:32.137Z,99.99
2022-08-17T05:31:32.095Z,99.99
2022-08-17T05:32:39.534Z,99.99
2022-08-17T05:33:31.953Z,99.99
2022-08-17T05:34:31.907Z,99.99
2022-08-17T05:35:31.836Z,99.99
2022-08-17T05:36:42.575Z,99.99
2022-08-17T05:37:31.722Z,99.99
2022-08-17T05:38:31.663Z,99.99
2022-08-17T05:39:31.655Z,99.99
2022-08-17T05:40:32.652Z,99.99
2022-08-17T05:41:31.499Z,99.99
2022-08-17T05:42:31.450Z,99.99
2022-08-17T05:43:31.414Z,99.99
2022-08-17T05:44:31.312Z,99.99
2022-08-17T05:45:54.206Z,99.99
2022-08-17T05:46:31.198Z,99.99
2022-08-17T05:47:31.139Z,99.99
2022-08-17T05:48:39.447Z,99.99
2022-08-17T05:49:31.024Z,99.99
2022-08-17T05:50:30.963Z,99.99
2022-08-17T05:51:30.907Z,99.99
2022-08-17T05:52:30.876Z,99.99
2022-08-17T05:53:30.821Z,99.99
2022-08-17T05:54:30.746Z,99.99
2022-08-17T05:55:30.682Z,99.99
2022-08-17T05:56:30.728Z,99.99
2022-08-17T05:57:30.553Z,99.99
2022-08-17T05:58:30.494Z,99.99
2022-08-17T05:59:30.436Z,99.99
2022-08-17T06:00:31.239Z,99.99
2022-08-17T06:01:30.378Z,99.99
2022-08-17T06:02:30.262Z,99.99
2022-08-17T06:03:30.204Z,99.99
2022-08-17T06:04:30.162Z,99.99
2022-08-17T06:05:30.104Z,99.99
2022-08-17T06:06:31.608Z,99.99
2022-08-17T06:07:29.977Z,99.99
2022-08-17T06:08:29.916Z,99.99
2022-08-17T06:09:33.613Z,99.99
2022-08-17T06:10:29.801Z,99.99
2022-08-17T06:11:29.739Z,99.99
2022-08-17T06:12:29.683Z,99.99
2022-08-17T06:13:29.629Z,99.99
2022-08-17T06:14:29.575Z,99.99
2022-08-17T06:15:29.532Z,99.41
2022-08-17T06:16:34.201Z,98.78
2022-08-17T06:17:29.398Z,97.71
2022-08-17T06:18:29.346Z,99.51
2022-08-17T06:19:29.285Z,96.59
2022-08-17T06:20:29.226Z,94.54
2022-08-17T06:21:31.984Z,93.85
2022-08-17T06:22:29.122Z,94.39
2022-08-17T06:23:29.067Z,92.72
2022-08-17T06:24:29.003Z,92.48
2022-08-17T06:25:28.940Z,90.57
2022-08-17T06:26:37.354Z,89.54
2022-08-17T06:27:28.827Z,88.60
2022-08-17T06:28:28.775Z,87.67
2022-08-17T06:29:28.714Z,88.41
2022-08-17T06:30:28.668Z,88.26
2022-08-17T06:31:28.624Z,87.07
2022-08-17T06:32:28.550Z,85.99
2022-08-17T06:33:28.490Z,86.34
2022-08-17T06:34:28.436Z,85.75
2022-08-17T06:35:32.126Z,87.22
2022-08-17T06:36:28.324Z,84.87
2022-08-17T06:37:28.273Z,85.74
2022-08-17T06:38:37.905Z,83.96
2022-08-17T06:39:28.254Z,82.43
2022-08-17T06:40:28.110Z,81.78
2022-08-17T06:41:28.045Z,80.17
2022-08-17T06:42:59.985Z,79.88
2022-08-17T06:43:27.978Z,80.35
2022-08-17T06:44:43.371Z,79.70
2022-08-17T06:45:27.853Z,80.33
2022-08-17T06:46:27.771Z,78.69
2022-08-17T06:47:28.184Z,77.61
2022-08-17T06:48:27.674Z,78.99
2022-08-17T06:49:27.610Z,77.75
2022-08-17T06:50:27.555Z,74.99
2022-08-17T06:51:27.521Z,74.82
2022-08-17T06:52:45.438Z,77.34
2022-08-17T06:53:27.390Z,78.22
2022-08-17T06:54:27.338Z,77.77
2022-08-17T06:55:27.295Z,75.94
2022-08-17T06:56:27.233Z,77.12
2022-08-17T06:57:27.174Z,75.65
2022-08-17T06:58:29.714Z,76.46
2022-08-17T06:59:47.122Z,77.20
2022-08-17T07:00:27.061Z,77.70
2022-08-17T07:01:27.034Z,76.81
2022-08-17T07:02:29.500Z,77.04
2022-08-17T07:03:26.853Z,76.29
2022-08-17T07:04:26.799Z,76.50
2022-08-17T07:05:26.743Z,76.33
2022-08-17T07:06:26.727Z,76.37
2022-08-17T07:07:26.641Z,75.66
2022-08-17T07:08:30.545Z,72.97
2022-08-17T07:09:26.536Z,72.77
2022-08-17T07:10:26.503Z,71.88
2022-08-17T07:11:26.434Z,72.05
2022-08-17T07:12:26.374Z,72.70
2022-08-17T07:13:26.321Z,73.72
2022-08-17T07:14:26.268Z,73.10
2022-08-17T07:15:26.254Z,73.23
2022-08-17T07:16:26.163Z,72.64
2022-08-17T07:17:46.722Z,72.60
2022-08-17T07:18:26.058Z,73.39
2022-08-17T07:19:26.013Z,73.23
2022-08-17T07:20:25.962Z,72.94
2022-08-17T07:21:26.638Z,70.80
2022-08-17T07:22:25.897Z,70.41
2022-08-17T07:23:25.831Z,69.35
2022-08-17T07:24:29.390Z,70.80
2022-08-17T07:25:25.693Z,71.36
2022-08-17T07:26:25.657Z,71.45
2022-08-17T07:27:25.588Z,70.76
2022-08-17T07:28:25.546Z,72.38
2022-08-17T07:29:25.483Z,72.74
2022-08-17T07:30:25.445Z,71.30
2022-08-17T07:31:25.382Z,68.20
2022-08-17T07:32:25.331Z,68.43
2022-08-17T07:33:25.287Z,71.00
2022-08-17T07:34:25.223Z,69.09
2022-08-17T07:35:25.175Z,69.19
2022-08-17T07:36:29.542Z,69.81
2022-08-17T07:37:25.085Z,71.09
2022-08-17T07:38:26.793Z,70.60
2022-08-17T07:39:25.003Z,69.94
2022-08-17T07:40:25.047Z,68.63
2022-08-17T07:41:24.863Z,69.12
2022-08-17T07:42:24.826Z,69.94
2022-08-17T07:43:24.772Z,71.12
2022-08-17T07:44:24.721Z,71.58
2022-08-17T07:45:24.656Z,73.12
2022-08-17T07:46:24.608Z,69.35
2022-08-17T07:47:24.565Z,70.31
2022-08-17T07:48:24.506Z,67.55
2022-08-17T07:49:24.453Z,68.07
2022-08-17T07:50:25.932Z,68.89
2022-08-17T07:51:24.359Z,66.78
2022-08-17T07:52:47.962Z,65.30
2022-08-17T07:53:24.248Z,64.81
2022-08-17T07:54:24.216Z,64.98
2022-08-17T07:55:24.147Z,64.68
2022-08-17T07:56:24.097Z,64.98
2022-08-17T07:57:27.969Z,66.20
2022-08-17T07:58:24.049Z,65.93
2022-08-17T07:59:24.151Z,65.31
2022-08-17T08:00:32.266Z,65.86
2022-08-17T08:01:23.878Z,65.30
2022-08-17T08:02:25.780Z,64.81
2022-08-17T08:03:26.022Z,63.92
2022-08-17T08:04:43.144Z,63.75
2022-08-17T08:05:32.878Z,65.30
2022-08-17T08:06:23.602Z,62.43
2022-08-17T08:07:23.560Z,63.15
2022-08-17T08:08:23.486Z,62.59
2022-08-17T08:09:23.434Z,60.31
2022-08-17T08:10:23.384Z,60.91
2022-08-17T08:11:23.332Z,60.58
2022-08-17T08:12:23.286Z,60.61
2022-08-17T08:13:23.239Z,61.60
2022-08-17T08:14:28.431Z,61.40
2022-08-17T08:15:23.143Z,62.29
2022-08-17T08:16:23.083Z,61.73
2022-08-17T08:17:23.033Z,60.71
2022-08-17T08:18:54.348Z,61.34
2022-08-17T08:19:22.988Z,62.66
2022-08-17T08:20:51.214Z,61.53
2022-08-17T08:21:22.835Z,59.91
2022-08-17T08:22:22.807Z,59.53
2022-08-17T08:23:22.737Z,58.25
2022-08-17T08:24:22.683Z,59.28
2022-08-17T08:25:22.647Z,59.91
2022-08-17T08:26:22.584Z,60.03
2022-08-17T08:27:22.535Z,58.57
2022-08-17T08:28:22.484Z,58.80
2022-08-17T08:29:22.442Z,57.70
2022-08-17T08:30:22.385Z,59.42
2022-08-17T08:31:22.342Z,58.75
2022-08-17T08:32:22.300Z,57.81
2022-08-17T08:33:22.243Z,57.68
2022-08-17T08:34:53.243Z,58.22
2022-08-17T08:35:22.142Z,57.42
2022-08-17T08:37:14.160Z,58.60
2022-08-17T08:37:32.585Z,60.07
2022-08-17T08:38:21.995Z,62.72
2022-08-17T08:39:21.962Z,65.28
2022-08-17T08:40:21.919Z,64.58
2022-08-17T08:41:21.906Z,63.65
2022-08-17T08:42:21.816Z,59.46
2022-08-17T08:43:21.754Z,61.80
2022-08-17T08:44:21.702Z,60.61
2022-08-17T08:45:22.216Z,60.38
2022-08-17T08:46:21.606Z,59.32
2022-08-17T08:47:21.558Z,60.65
2022-08-17T08:48:46.095Z,60.65
2022-08-17T08:49:33.866Z,59.89
2022-08-17T08:50:36.904Z,58.30
2022-08-17T08:51:21.364Z,59.27
2022-08-17T08:52:21.322Z,59.66
2022-08-17T08:53:21.297Z,60.06
2022-08-17T08:54:26.908Z,58.63
2022-08-17T08:55:21.193Z,58.90
2022-08-17T08:56:21.122Z,59.12
2022-08-17T08:57:29.202Z,58.91
2022-08-17T08:58:31.562Z,57.55
2022-08-17T08:59:20.982Z,56.41
2022-08-17T09:00:20.927Z,56.94
2022-08-17T09:01:20.965Z,56.59
2022-08-17T09:02:20.875Z,55.40
2022-08-17T09:03:20.794Z,53.96
2022-08-17T09:04:25.141Z,53.28
2022-08-17T09:05:20.693Z,55.21
2022-08-17T09:06:35.594Z,56.69
2022-08-17T09:07:20.594Z,58.34
2022-08-17T09:08:20.554Z,59.63
2022-08-17T09:09:20.499Z,59.30
2022-08-17T09:10:20.456Z,58.63
2022-08-17T09:11:20.411Z,56.74
2022-08-17T09:12:20.437Z,57.44
2022-08-17T09:13:20.324Z,57.40
2022-08-17T09:14:21.954Z,56.40
2022-08-17T09:15:20.232Z,55.76
2022-08-17T09:16:20.708Z,57.64
2022-08-17T09:17:20.121Z,61.00
2022-08-17T09:19:00.640Z,60.85
2022-08-17T09:19:20.024Z,61.77
2022-08-17T09:20:28.198Z,62.43
2022-08-17T09:21:19.946Z,65.58
2022-08-17T09:22:19.959Z,62.71
2022-08-17T09:23:19.839Z,60.21
2022-08-17T09:24:20.676Z,60.30
2022-08-17T09:25:19.750Z,59.60
2022-08-17T09:26:19.708Z,58.26
2022-08-17T09:27:19.645Z,59.47
2022-08-17T09:28:19.592Z,57.33
2022-08-17T09:29:19.553Z,58.40
2022-08-17T09:30:19.499Z,57.24
2022-08-17T09:31:19.452Z,56.11
2022-08-17T09:32:19.463Z,55.66
2022-08-17T09:33:19.373Z,55.29
2022-08-17T09:34:19.310Z,54.39
2022-08-17T09:35:19.259Z,56.87
2022-08-17T09:36:19.208Z,55.41
2022-08-17T09:37:19.183Z,57.05
2022-08-17T09:38:19.121Z,59.09
2022-08-17T09:39:19.070Z,60.64
2022-08-17T09:40:19.132Z,60.11
2022-08-17T09:41:18.978Z,59.61
2022-08-17T09:42:18.945Z,59.43
2022-08-17T09:43:18.880Z,59.86
2022-08-17T09:44:22.825Z,62.17
2022-08-17T09:45:18.781Z,61.08
2022-08-17T09:46:18.733Z,61.87
2022-08-17T09:47:18.688Z,61.90
2022-08-17T09:48:18.637Z,59.16
2022-08-17T09:49:23.156Z,57.61
2022-08-17T09:50:18.537Z,57.24
2022-08-17T09:51:18.511Z,58.46
2022-08-17T09:52:18.621Z,58.01
2022-08-17T09:53:18.395Z,57.87
2022-08-17T09:54:38.021Z,58.23
2022-08-17T09:55:18.353Z,58.19
2022-08-17T09:56:18.298Z,61.25
2022-08-17T09:57:29.774Z,62.27
2022-08-17T09:58:18.207Z,58.22
2022-08-17T09:59:18.173Z,59.41
2022-08-17T10:00:18.110Z,62.33
2022-08-17T10:01:18.097Z,65.03
2022-08-17T10:02:17.992Z,60.45
2022-08-17T10:03:17.997Z,57.26
2022-08-17T10:04:20.219Z,57.82
2022-08-17T10:05:17.904Z,57.20
2022-08-17T10:06:21.967Z,57.84
2022-08-17T10:07:17.745Z,58.88
2022-08-17T10:08:17.720Z,58.00
2022-08-17T10:09:17.656Z,58.95
2022-08-17T10:10:17.713Z,65.63
2022-08-17T10:11:17.567Z,62.43
2022-08-17T10:12:17.815Z,55.94
2022-08-17T10:13:18.311Z,63.39
2022-08-17T10:14:37.929Z,62.33
2022-08-17T10:15:17.593Z,59.09
2022-08-17T10:16:17.362Z,60.31
2022-08-17T10:17:17.264Z,58.16
2022-08-17T10:18:17.270Z,62.45
2022-08-17T10:19:17.174Z,60.54
2022-08-17T10:20:17.115Z,56.57
2022-08-17T10:21:17.084Z,57.24
2022-08-17T10:22:35.260Z,60.41
2022-08-17T10:23:16.994Z,60.24
2022-08-17T10:24:16.932Z,60.07
2022-08-17T10:25:22.222Z,59.67
2022-08-17T10:26:16.842Z,61.02
2022-08-17T10:27:16.757Z,60.75
2022-08-17T10:28:20.315Z,60.48
2022-08-17T10:29:16.658Z,57.64
2022-08-17T10:30:16.631Z,57.09
2022-08-17T10:31:34.284Z,57.13
2022-08-17T10:32:16.540Z,57.03
2022-08-17T10:33:16.479Z,60.39
2022-08-17T10:34:16.450Z,58.29
2022-08-17T10:35:16.388Z,59.70
2022-08-17T10:36:16.360Z,58.51
2022-08-17T10:37:16.302Z,59.30
2022-08-17T10:38:16.272Z,58.92
2022-08-17T10:39:16.277Z,58.46
2022-08-17T10:40:16.226Z,57.79
2022-08-17T10:41:16.287Z,54.72
2022-08-17T10:42:16.090Z,54.27
2022-08-17T10:43:16.005Z,61.00
2022-08-17T10:44:37.131Z,60.21
2022-08-17T10:45:15.908Z,61.23
2022-08-17T10:46:30.628Z,56.62
2022-08-17T10:47:15.814Z,60.44
2022-08-17T10:48:15.821Z,57.97
2022-08-17T10:49:15.730Z,58.23
2022-08-17T10:50:15.730Z,58.63
2022-08-17T10:51:15.944Z,58.11
2022-08-17T10:52:15.542Z,57.31
2022-08-17T10:53:19.841Z,58.53
2022-08-17T10:54:15.458Z,58.43
2022-08-17T10:55:15.459Z,58.30
2022-08-17T10:56:15.364Z,58.43
2022-08-17T10:57:15.470Z,60.48
2022-08-17T10:58:15.276Z,58.33
2022-08-17T10:59:15.209Z,60.41
2022-08-17T11:00:15.184Z,60.05
2022-08-17T11:01:15.250Z,57.59
2022-08-17T11:02:15.125Z,55.51
2022-08-17T11:03:15.033Z,58.69
2022-08-17T11:04:15.006Z,57.29
2022-08-17T11:05:14.942Z,56.43
2022-08-17T11:06:14.918Z,55.19
2022-08-17T11:07:14.922Z,55.71
2022-08-17T11:08:14.775Z,55.73
2022-08-17T11:09:14.733Z,56.12
2022-08-17T11:10:14.737Z,57.89
2022-08-17T11:11:14.644Z,58.92
2022-08-17T11:12:14.647Z,58.40
2022-08-17T11:13:14.555Z,59.22
2022-08-17T11:14:14.548Z,61.08
2022-08-17T11:15:14.461Z,60.76
2022-08-17T11:16:14.391Z,60.96
2022-08-17T11:17:14.364Z,61.55
2022-08-17T11:18:14.305Z,61.52
2022-08-17T11:19:14.279Z,61.55
2022-08-17T11:20:14.185Z,62.59
2022-08-17T11:21:14.190Z,61.05
2022-08-17T11:22:14.124Z,59.74
2022-08-17T11:23:14.098Z,61.31
2022-08-17T11:24:14.005Z,60.11
2022-08-17T11:25:14.009Z,61.52
2022-08-17T11:26:13.940Z,61.85
2022-08-17T11:27:13.847Z,63.39
2022-08-17T11:28:13.926Z,62.10
2022-08-17T11:29:13.829Z,62.75
2022-08-17T11:30:13.826Z,62.62
2022-08-17T11:31:13.667Z,59.75
2022-08-17T11:32:13.675Z,58.08
2022-08-17T11:33:13.545Z,58.22
2022-08-17T11:34:13.475Z,60.71
2022-08-17T11:35:13.455Z,59.95
2022-08-17T11:36:13.388Z,58.05
2022-08-17T11:37:13.362Z,59.70
2022-08-17T11:38:16.200Z,59.33
2022-08-17T11:39:13.202Z,60.09
2022-08-17T11:40:13.300Z,59.17
2022-08-17T11:41:13.183Z,59.67
2022-08-17T11:42:13.084Z,59.67
2022-08-17T11:43:13.021Z,62.55
2022-08-17T11:44:13.025Z,63.37
2022-08-17T11:45:17.552Z,62.94
2022-08-17T11:46:12.906Z,60.31
2022-08-17T11:47:12.835Z,57.70
2022-08-17T11:48:29.149Z,56.34
2022-08-17T11:49:12.747Z,55.94
2022-08-17T11:50:12.725Z,56.81
2022-08-17T11:51:12.740Z,58.19
2022-08-17T11:52:12.629Z,56.58
2022-08-17T11:53:12.534Z,58.86
2022-08-17T11:54:32.391Z,57.61
2022-08-17T11:55:34.679Z,58.97
2022-08-17T11:56:12.457Z,58.64
2022-08-17T11:57:12.362Z,59.20
2022-08-17T11:58:12.289Z,61.27
2022-08-17T11:59:12.271Z,62.85
2022-08-17T12:00:12.266Z,62.92
2022-08-17T12:01:13.474Z,64.39
2022-08-17T12:02:12.075Z,62.23
2022-08-17T12:03:12.148Z,62.23
2022-08-17T12:04:12.068Z,60.75
2022-08-17T12:05:12.205Z,60.68
2022-08-17T12:06:11.846Z,59.67
2022-08-17T12:07:11.899Z,60.26
2022-08-17T12:08:11.818Z,59.61
2022-08-17T12:09:11.709Z,60.50
2022-08-17T12:10:11.715Z,63.87
2022-08-17T12:11:11.631Z,59.71
2022-08-17T12:12:13.711Z,63.84
2022-08-17T12:13:12.590Z,61.77
2022-08-17T12:14:16.663Z,60.50
2022-08-17T12:15:12.321Z,60.89
2022-08-17T12:16:11.442Z,61.25
2022-08-17T12:17:11.348Z,63.25
2022-08-17T12:18:11.252Z,63.45
2022-08-17T12:19:11.257Z,63.15
2022-08-17T12:20:11.167Z,61.77
2022-08-17T12:21:11.167Z,62.07
2022-08-17T12:22:11.074Z,64.30
2022-08-17T12:23:11.077Z,61.68
2022-08-17T12:24:10.983Z,64.73
2022-08-17T12:25:10.890Z,63.75
2022-08-17T12:26:10.890Z,63.32
2022-08-17T12:27:10.798Z,63.81
2022-08-17T12:28:11.202Z,64.08
2022-08-17T12:29:18.461Z,63.52
2022-08-17T12:30:10.645Z,63.71
2022-08-17T12:31:10.615Z,64.31
2022-08-17T12:32:10.518Z,64.99
2022-08-17T12:33:10.742Z,63.52
2022-08-17T12:34:10.433Z,63.91
2022-08-17T12:35:10.435Z,64.21
2022-08-17T12:36:10.443Z,61.95
2022-08-17T12:37:10.278Z,65.22
2022-08-17T12:38:32.461Z,63.32
2022-08-17T12:39:13.772Z,63.00
2022-08-17T12:40:10.146Z,62.90
2022-08-17T12:41:10.064Z,64.86
2022-08-17T12:42:10.005Z,64.79
2022-08-17T12:43:09.974Z,62.73
2022-08-17T12:44:09.988Z,62.18
2022-08-17T12:45:09.817Z,63.35
2022-08-17T12:46:13.390Z,62.24
2022-08-17T12:47:09.792Z,61.88
2022-08-17T12:48:09.696Z,64.73
2022-08-17T12:49:09.679Z,66.99
2022-08-17T12:50:28.506Z,67.97
2022-08-17T12:51:09.511Z,64.14
2022-08-17T12:52:09.516Z,65.03